Terminal Aerodrome Forecast
Issued by NWS

Home | Current Version | Previous Version | Text Only | Print | Product List | Glossary On
Versions: 1 2 3 4 5 6 7 8 9 10 11 12 13 14 15 16 17 18 19 20 21 22 23 24 25 26 27 28 29
000
FTUS43 KABR 222338
TAFATY
TAF
KATY 222338Z 2300/2324 33013KT P6SM OVC008
     FM230200 36013KT P6SM OVC008
     FM231200 03011KT P6SM BKN008 OVC011
     FM231400 04011KT P6SM OVC010
     FM231800 05014G21KT 3SM -SN BR OVC015
     FM232200 05020G28KT 1 1/2SM -SN BLSN BR OVC025=

USA.gov is the U.S. government's official web portal to all federal, state and local government web resources and services.